
Distance (Route):
Temperature : 2.7°C
Humidity : 70.0%
Pressure : 0hPa| Receiver | Frames | First received | Last received |
|---|---|---|---|
| DO3MHA-12 | 39 | 2026-08-31 10:32:23 | 2026-08-31 11:55:48 |
| Receiver | Date | Latitude | Longitude | Direction | Speed | Altitude | Climb | Temperature | Humidity | Pressure | Voltage | Killtimer | Uptime | BKT | XDATA |
|---|---|---|---|---|---|---|---|---|---|---|---|---|---|---|---|
| DO3MHA-12 | 2026-08-31 11:55:48 | 47.57365 | 10.33197 | 49° | 60km/h | 3218m | -2.3m/s | 2.7°C | 70.0% | 0hPa | 0V | 00:00:00 | 00:00:00 | 00:00:00 | |
| DO3MHA-12 | 2026-08-31 11:55:43 | 47.57315 | 10.33119 | 48° | 68km/h | 3240m | -2.1m/s | 3.4°C | 70.0% | 0hPa | 0V | 00:00:00 | 00:00:00 | 00:00:00 | |
| DO3MHA-12 | 2026-08-31 11:37:10 | 47.49658 | 10.04576 | 66° | 77km/h | 6561m | -3.1m/s | -18.5°C | 0% | 0hPa | 0V | 00:00:00 | 00:00:00 | 00:00:00 | |
| DO3MHA-12 | 2026-08-31 11:36:22 | 47.49260 | 10.03316 | 68° | 82km/h | 6714m | -3.1m/s | -19.7°C | 11.3% | 0hPa | 0V | 00:00:00 | 00:00:00 | 00:00:00 | |
| DO3MHA-12 | 2026-08-31 11:34:50 | 47.48563 | 10.00674 | 71° | 82km/h | 7011m | -3.1m/s | -21.6°C | 6.5% | 0hPa | 0V | 00:00:00 | 00:00:00 | 00:00:00 | |
| DO3MHA-12 | 2026-08-31 11:34:11 | 47.48288 | 9.99514 | 71° | 80km/h | 7133m | -3.2m/s | -22.6°C | 6.6% | 0hPa | 0V | 00:00:00 | 00:00:00 | 00:00:00 | |
| DO3MHA-12 | 2026-08-31 11:33:43 | 47.48077 | 9.98645 | 70° | 78km/h | 7223m | -3.2m/s | -23.3°C | 7.8% | 0hPa | 0V | 00:00:00 | 00:00:00 | 00:00:00 | |
| DO3MHA-12 | 2026-08-31 11:33:33 | 47.47997 | 9.98386 | 72° | 82km/h | 7256m | -3.2m/s | -23.7°C | 7.8% | 0hPa | 0V | 00:00:00 | 00:00:00 | 00:00:00 | |
| DO3MHA-12 | 2026-08-31 11:33:23 | 47.47950 | 9.98120 | 70° | 82km/h | 7288m | -3.3m/s | -24.0°C | 8.0% | 0hPa | 0V | 00:00:00 | 00:00:00 | 00:00:00 | |
| DO3MHA-12 | 2026-08-31 11:32:50 | 47.47678 | 9.97119 | 71° | 86km/h | 7396m | -3.2m/s | -25.0°C | 8.3% | 0hPa | 0V | 00:00:00 | 00:00:00 | 00:00:00 | |
| DO3MHA-12 | 2026-08-31 11:32:40 | 47.47605 | 9.96862 | 69° | 89km/h | 7429m | -3.3m/s | -25.3°C | 8.1% | 0hPa | 0V | 00:00:00 | 00:00:00 | 00:00:00 | |
| DO3MHA-12 | 2026-08-31 11:32:09 | 47.47369 | 9.95911 | 68° | 91km/h | 7532m | -3.2m/s | -26.4°C | 6.5% | 0hPa | 0V | 00:00:00 | 00:00:00 | 00:00:00 | |
| DO3MHA-12 | 2026-08-31 11:31:28 | 47.47054 | 9.94607 | 68° | 93km/h | 7668m | -3.3m/s | 0°C | 3.0% | 0hPa | 0V | 00:00:00 | 00:00:00 | 00:00:00 | |
| DO3MHA-12 | 2026-08-31 11:30:47 | 47.46661 | 9.93248 | 68° | 91km/h | 7807m | -3.4m/s | -27.7°C | 2.5% | 0hPa | 0V | 00:00:00 | 00:00:00 | 00:00:00 | |
| DO3MHA-12 | 2026-08-31 11:30:37 | 47.46572 | 9.92947 | 69° | 97km/h | 7841m | -3.4m/s | -28.0°C | 2.5% | 0hPa | 0V | 00:00:00 | 00:00:00 | 00:00:00 | |
| DO3MHA-12 | 2026-08-31 11:30:27 | 47.46495 | 9.92642 | 68° | 97km/h | 7879m | -3.4m/s | -28.2°C | 2.7% | 0hPa | 0V | 00:00:00 | 00:00:00 | 00:00:00 | |
| DO3MHA-12 | 2026-08-31 11:29:58 | 47.46198 | 9.91619 | 67° | 93km/h | 7983m | -3.4m/s | -29.1°C | 3.2% | 0hPa | 0V | 00:00:00 | 00:00:00 | 00:00:00 | |
| DO3MHA-12 | 2026-08-31 11:29:47 | 47.46087 | 9.91301 | 66° | 95km/h | 8014m | -3.4m/s | -29.4°C | 3.4% | 0hPa | 0V | 00:00:00 | 00:00:00 | 00:00:00 | |
| DO3MHA-12 | 2026-08-31 11:29:24 | 47.45835 | 9.90484 | 66° | 93km/h | 8116m | -3.4m/s | -30.3°C | 3.4% | 0hPa | 0V | 00:00:00 | 00:00:00 | 00:00:00 | |
| DO3MHA-12 | 2026-08-31 11:29:13 | 47.45726 | 9.90194 | 68° | 100km/h | 8137m | -3.5m/s | -30.5°C | 3.0% | 0hPa | 0V | 00:00:00 | 00:00:00 | 00:00:00 | |
| DO3MHA-12 | 2026-08-31 11:28:25 | 47.45229 | 9.88594 | 64° | 102km/h | 8309m | -3.5m/s | -31.8°C | 0.9% | 0hPa | 0V | 00:00:00 | 00:00:00 | 00:00:00 | |
| DO3MHA-12 | 2026-08-31 11:27:46 | 47.44777 | 9.87294 | 69° | 113km/h | 8447m | -3.7m/s | -32.6°C | 1.2% | 0hPa | 0V | 00:00:00 | 00:00:00 | 00:00:00 | |
| DO3MHA-12 | 2026-08-31 11:27:12 | 47.44390 | 9.86046 | 72° | 115km/h | 8568m | -3.7m/s | -33.3°C | 2.2% | 0hPa | 0V | 00:00:00 | 00:00:00 | 00:00:00 | |
| DO3MHA-12 | 2026-08-31 11:27:02 | 47.44299 | 9.85649 | 71° | 117km/h | 8632m | -3.8m/s | -33.7°C | 2.5% | 0hPa | 0V | 00:00:00 | 00:00:00 | 00:00:00 | |
| DO3MHA-12 | 2026-08-31 11:26:51 | 47.44200 | 9.85208 | 70° | 117km/h | 8670m | -3.9m/s | -34.2°C | 3.0% | 0hPa | 0V | 00:00:00 | 00:00:00 | 00:00:00 | |
| DO3MHA-12 | 2026-08-31 11:26:39 | 47.44088 | 9.84702 | 68° | 117km/h | 8697m | -3.9m/s | -34.3°C | 4.6% | 0hPa | 0V | 00:00:00 | 00:00:00 | 00:00:00 | |
| DO3MHA-12 | 2026-08-31 11:26:26 | 47.43923 | 9.84172 | 70° | 117km/h | 8745m | -3.9m/s | -34.5°C | 5.3% | 0hPa | 0V | 00:00:00 | 00:00:00 | 00:00:00 | |
| DO3MHA-12 | 2026-08-31 11:26:16 | 47.43834 | 9.83768 | 67° | 115km/h | 8825m | -3.8m/s | -35.1°C | 6.5% | 0hPa | 0V | 00:00:00 | 00:00:00 | 00:00:00 | |
| DO3MHA-12 | 2026-08-31 11:26:01 | 47.43642 | 9.83139 | 70° | 119km/h | 8844m | -3.9m/s | -35.2°C | 6.8% | 0hPa | 0V | 00:00:00 | 00:00:00 | 00:00:00 | |
| DO3MHA-12 | 2026-08-31 11:25:51 | 47.43534 | 9.82762 | 69° | 126km/h | 8883m | -3.9m/s | -35.5°C | 7.5% | 0hPa | 0V | 00:00:00 | 00:00:00 | 00:00:00 | |
| DO3MHA-12 | 2026-08-31 11:25:17 | 47.43117 | 9.81352 | 68° | 128km/h | 9018m | -3.8m/s | -36.8°C | 9.3% | 0hPa | 0V | 00:00:00 | 00:00:00 | 00:00:00 | |
| DO3MHA-12 | 2026-08-31 11:24:43 | 47.42675 | 9.79914 | 69° | 133km/h | 9152m | -3.8m/s | -37.4°C | 10.3% | 0hPa | 0V | 00:00:00 | 00:00:00 | 00:00:00 | |
| DO3MHA-12 | 2026-08-31 11:24:06 | 47.42188 | 9.78274 | 70° | 142km/h | 9295m | -3.8m/s | -38.5°C | 12.6% | 0hPa | 0V | 00:00:00 | 00:00:00 | 00:00:00 | |
| DO3MHA-12 | 2026-08-31 11:23:35 | 47.41773 | 9.76807 | 69° | 148km/h | 9419m | -3.7m/s | -39.3°C | 15.0% | 0hPa | 0V | 00:00:00 | 00:00:00 | 00:00:00 | |
| DO3MHA-12 | 2026-08-31 11:22:51 | 47.41186 | 9.74636 | 70° | 150km/h | 9582m | -3.6m/s | -40.1°C | 18.8% | 0hPa | 0V | 00:00:00 | 00:00:00 | 00:00:00 | |
| DO3MHA-12 | 2026-08-31 11:22:14 | 47.40642 | 9.72707 | 70° | 162km/h | 9730m | -3.5m/s | -41.5°C | 16.8% | 0hPa | 0V | 00:00:00 | 00:00:00 | 00:00:00 | |
| DO3MHA-12 | 2026-08-31 11:14:22 | 47.33097 | 9.45730 | 70° | 170km/h | 11582m | -4.7m/s | -51.9°C | 0% | 0hPa | 0V | 00:00:00 | 00:00:00 | 00:00:00 | |
| DO3MHA-12 | 2026-08-31 11:13:49 | 47.32550 | 9.43743 | 68° | 80km/h | 11723m | -7.7m/s | -52.1°C | 0% | 0hPa | 0V | 00:00:00 | 00:00:00 | 00:00:00 | |
| DO3MHA-12 | 2026-08-31 10:32:23 | 47.17895 | 9.00284 | 51° | 16km/h | 31531m | 5.0m/s | -40.7°C | 0% | 0hPa | 0V | 00:00:00 | 00:00:00 | 00:00:00 |